sensor_id;sensor_type;location;lat;lon;timestamp;P1;durP1;ratioP1;P2;durP2;ratioP2
27999;SDS011;15328;50.860;10.562;2023-08-21T00:00:31;9.73;;;8.63;;
27999;SDS011;15328;50.860;10.562;2023-08-21T00:05:32;11.27;;;8.73;;
27999;SDS011;15328;50.860;10.562;2023-08-21T00:10:32;9.50;;;8.48;;
27999;SDS011;15328;50.860;10.562;2023-08-21T00:15:33;9.30;;;8.13;;
27999;SDS011;15328;50.860;10.562;2023-08-21T00:20:33;8.77;;;7.25;;
27999;SDS011;15328;50.860;10.562;2023-08-21T00:25:33;8.53;;;7.57;;
27999;SDS011;15328;50.860;10.562;2023-08-21T00:30:34;10.18;;;8.15;;
27999;SDS011;15328;50.860;10.562;2023-08-21T00:35:34;9.30;;;7.53;;
27999;SDS011;15328;50.860;10.562;2023-08-21T00:40:35;8.63;;;7.37;;
27999;SDS011;15328;50.860;10.562;2023-08-21T00:45:35;7.70;;;6.90;;
27999;SDS011;15328;50.860;10.562;2023-08-21T00:50:36;8.35;;;7.32;;
27999;SDS011;15328;50.860;10.562;2023-08-21T00:55:36;9.95;;;7.75;;
27999;SDS011;15328;50.860;10.562;2023-08-21T01:00:37;8.55;;;7.65;;
27999;SDS011;15328;50.860;10.562;2023-08-21T01:05:37;8.80;;;7.90;;
27999;SDS011;15328;50.860;10.562;2023-08-21T01:15:59;8.98;;;7.00;;
27999;SDS011;15328;50.860;10.562;2023-08-21T01:21:01;10.35;;;7.35;;
27999;SDS011;15328;50.860;10.562;2023-08-21T01:26:04;10.13;;;6.90;;
27999;SDS011;15328;50.860;10.562;2023-08-21T01:31:07;8.73;;;7.50;;
27999;SDS011;15328;50.860;10.562;2023-08-21T01:36:08;8.15;;;6.60;;
27999;SDS011;15328;50.860;10.562;2023-08-21T01:41:09;8.38;;;7.05;;
27999;SDS011;15328;50.860;10.562;2023-08-21T01:46:09;8.60;;;7.13;;
27999;SDS011;15328;50.860;10.562;2023-08-21T01:51:10;8.65;;;7.10;;
27999;SDS011;15328;50.860;10.562;2023-08-21T01:56:10;7.87;;;6.67;;
27999;SDS011;15328;50.860;10.562;2023-08-21T02:01:10;8.17;;;6.93;;
27999;SDS011;15328;50.860;10.562;2023-08-21T02:06:11;9.10;;;7.30;;
27999;SDS011;15328;50.860;10.562;2023-08-21T02:11:11;8.02;;;7.18;;
27999;SDS011;15328;50.860;10.562;2023-08-21T02:16:12;7.90;;;6.57;;
27999;SDS011;15328;50.860;10.562;2023-08-21T02:21:12;8.53;;;7.53;;
27999;SDS011;15328;50.860;10.562;2023-08-21T02:26:13;11.83;;;8.27;;
27999;SDS011;15328;50.860;10.562;2023-08-21T02:31:13;11.13;;;8.03;;
27999;SDS011;15328;50.860;10.562;2023-08-21T02:36:13;9.53;;;8.10;;
27999;SDS011;15328;50.860;10.562;2023-08-21T02:41:13;11.50;;;8.60;;
27999;SDS011;15328;50.860;10.562;2023-08-21T02:46:14;9.47;;;8.47;;
27999;SDS011;15328;50.860;10.562;2023-08-21T02:51:14;9.70;;;7.85;;
27999;SDS011;15328;50.860;10.562;2023-08-21T02:56:15;9.93;;;8.63;;
27999;SDS011;15328;50.860;10.562;2023-08-21T03:01:15;9.52;;;8.20;;
27999;SDS011;15328;50.860;10.562;2023-08-21T03:06:17;10.25;;;8.52;;
27999;SDS011;15328;50.860;10.562;2023-08-21T03:11:17;8.53;;;7.73;;
27999;SDS011;15328;50.860;10.562;2023-08-21T03:16:17;9.73;;;8.73;;
27999;SDS011;15328;50.860;10.562;2023-08-21T03:21:18;10.53;;;8.90;;
27999;SDS011;15328;50.860;10.562;2023-08-21T03:26:18;9.85;;;8.25;;
27999;SDS011;15328;50.860;10.562;2023-08-21T03:31:18;8.57;;;7.67;;
27999;SDS011;15328;50.860;10.562;2023-08-21T03:36:19;8.43;;;7.40;;
27999;SDS011;15328;50.860;10.562;2023-08-21T03:41:19;9.25;;;8.00;;
27999;SDS011;15328;50.860;10.562;2023-08-21T03:46:19;10.27;;;8.23;;
27999;SDS011;15328;50.860;10.562;2023-08-21T03:51:20;9.50;;;8.13;;
27999;SDS011;15328;50.860;10.562;2023-08-21T03:56:20;10.38;;;8.77;;
27999;SDS011;15328;50.860;10.562;2023-08-21T04:01:21;9.50;;;8.50;;
27999;SDS011;15328;50.860;10.562;2023-08-21T04:06:22;9.13;;;8.23;;
27999;SDS011;15328;50.860;10.562;2023-08-21T04:11:22;9.52;;;8.10;;
27999;SDS011;15328;50.860;10.562;2023-08-21T04:16:22;9.20;;;7.47;;
27999;SDS011;15328;50.860;10.562;2023-08-21T04:21:23;8.90;;;7.93;;
27999;SDS011;15328;50.860;10.562;2023-08-21T04:26:23;9.35;;;8.30;;
27999;SDS011;15328;50.860;10.562;2023-08-21T04:31:24;8.03;;;7.23;;
27999;SDS011;15328;50.860;10.562;2023-08-21T04:36:24;9.87;;;7.70;;
27999;SDS011;15328;50.860;10.562;2023-08-21T04:41:24;9.30;;;7.97;;
27999;SDS011;15328;50.860;10.562;2023-08-21T04:46:24;12.13;;;8.60;;
27999;SDS011;15328;50.860;10.562;2023-08-21T04:51:25;12.97;;;10.00;;
27999;SDS011;15328;50.860;10.562;2023-08-21T04:56:27;12.40;;;9.77;;
27999;SDS011;15328;50.860;10.562;2023-08-21T05:01:27;9.50;;;8.50;;
27999;SDS011;15328;50.860;10.562;2023-08-21T05:06:27;11.67;;;9.67;;
27999;SDS011;15328;50.860;10.562;2023-08-21T05:11:28;13.33;;;10.13;;
27999;SDS011;15328;50.860;10.562;2023-08-21T05:16:28;13.20;;;10.63;;
27999;SDS011;15328;50.860;10.562;2023-08-21T05:21:28;10.90;;;9.10;;
27999;SDS011;15328;50.860;10.562;2023-08-21T05:26:29;9.75;;;8.75;;
27999;SDS011;15328;50.860;10.562;2023-08-21T05:31:29;15.17;;;11.27;;
27999;SDS011;15328;50.860;10.562;2023-08-21T05:36:30;12.07;;;10.23;;
27999;SDS011;15328;50.860;10.562;2023-08-21T05:41:31;9.60;;;8.60;;
27999;SDS011;15328;50.860;10.562;2023-08-21T05:46:32;9.50;;;8.20;;
27999;SDS011;15328;50.860;10.562;2023-08-21T05:51:32;8.87;;;7.97;;
27999;SDS011;15328;50.860;10.562;2023-08-21T05:56:32;11.17;;;8.40;;
27999;SDS011;15328;50.860;10.562;2023-08-21T06:01:33;11.20;;;9.30;;
27999;SDS011;15328;50.860;10.562;2023-08-21T06:06:33;12.17;;;10.23;;
27999;SDS011;15328;50.860;10.562;2023-08-21T06:11:33;10.57;;;8.90;;
27999;SDS011;15328;50.860;10.562;2023-08-21T06:16:34;10.53;;;8.77;;
27999;SDS011;15328;50.860;10.562;2023-08-21T06:21:34;9.07;;;7.80;;
27999;SDS011;15328;50.860;10.562;2023-08-21T06:26:34;8.33;;;7.50;;
27999;SDS011;15328;50.860;10.562;2023-08-21T06:31:35;7.00;;;6.30;;
27999;SDS011;15328;50.860;10.562;2023-08-21T06:36:35;7.00;;;6.30;;
27999;SDS011;15328;50.860;10.562;2023-08-21T06:41:35;6.73;;;6.00;;
27999;SDS011;15328;50.860;10.562;2023-08-21T06:46:36;6.87;;;5.90;;
27999;SDS011;15328;50.860;10.562;2023-08-21T06:51:36;6.22;;;5.63;;
27999;SDS011;15328;50.860;10.562;2023-08-21T06:56:36;6.87;;;5.93;;
27999;SDS011;15328;50.860;10.562;2023-08-21T07:01:37;6.70;;;6.00;;
27999;SDS011;15328;50.860;10.562;2023-08-21T07:06:38;6.55;;;5.82;;
27999;SDS011;15328;50.860;10.562;2023-08-21T07:11:38;10.40;;;8.33;;
27999;SDS011;15328;50.860;10.562;2023-08-21T07:16:38;11.63;;;9.53;;
27999;SDS011;15328;50.860;10.562;2023-08-21T07:21:39;15.13;;;11.20;;
27999;SDS011;15328;50.860;10.562;2023-08-21T07:26:39;18.20;;;13.20;;
27999;SDS011;15328;50.860;10.562;2023-08-21T07:31:39;15.73;;;11.68;;
27999;SDS011;15328;50.860;10.562;2023-08-21T07:36:40;15.63;;;11.03;;
27999;SDS011;15328;50.860;10.562;2023-08-21T07:41:40;18.13;;;12.10;;
27999;SDS011;15328;50.860;10.562;2023-08-21T07:46:40;15.30;;;10.83;;
27999;SDS011;15328;50.860;10.562;2023-08-21T07:51:41;14.53;;;10.23;;
27999;SDS011;15328;50.860;10.562;2023-08-21T07:56:41;14.37;;;11.67;;
27999;SDS011;15328;50.860;10.562;2023-08-21T08:01:41;14.77;;;11.23;;
27999;SDS011;15328;50.860;10.562;2023-08-21T08:06:42;15.15;;;11.68;;
27999;SDS011;15328;50.860;10.562;2023-08-21T08:11:42;16.13;;;10.77;;
27999;SDS011;15328;50.860;10.562;2023-08-21T08:16:43;17.37;;;12.10;;
27999;SDS011;15328;50.860;10.562;2023-08-21T08:21:43;14.37;;;11.13;;
27999;SDS011;15328;50.860;10.562;2023-08-21T08:26:43;10.73;;;9.10;;
27999;SDS011;15328;50.860;10.562;2023-08-21T08:31:44;13.93;;;9.10;;
27999;SDS011;15328;50.860;10.562;2023-08-21T08:36:44;10.07;;;8.98;;
27999;SDS011;15328;50.860;10.562;2023-08-21T08:41:54;11.77;;;9.63;;
27999;SDS011;15328;50.860;10.562;2023-08-21T08:46:59;10.75;;;9.23;;
27999;SDS011;15328;50.860;10.562;2023-08-21T08:52:00;11.57;;;9.50;;
27999;SDS011;15328;50.860;10.562;2023-08-21T08:57:01;9.10;;;8.07;;
27999;SDS011;15328;50.860;10.562;2023-08-21T09:02:01;12.07;;;10.15;;
27999;SDS011;15328;50.860;10.562;2023-08-21T09:07:06;11.65;;;9.35;;
27999;SDS011;15328;50.860;10.562;2023-08-21T09:12:11;10.85;;;8.75;;
27999;SDS011;15328;50.860;10.562;2023-08-21T09:17:12;9.55;;;8.43;;
27999;SDS011;15328;50.860;10.562;2023-08-21T09:22:14;11.65;;;8.93;;
27999;SDS011;15328;50.860;10.562;2023-08-21T09:27:16;10.98;;;8.38;;
27999;SDS011;15328;50.860;10.562;2023-08-21T09:32:17;8.88;;;7.60;;
27999;SDS011;15328;50.860;10.562;2023-08-21T09:37:18;10.77;;;7.78;;
27999;SDS011;15328;50.860;10.562;2023-08-21T09:42:18;10.00;;;8.07;;
27999;SDS011;15328;50.860;10.562;2023-08-21T09:47:19;12.43;;;8.88;;
27999;SDS011;15328;50.860;10.562;2023-08-21T09:52:20;12.63;;;9.27;;
27999;SDS011;15328;50.860;10.562;2023-08-21T09:57:22;10.15;;;8.40;;
27999;SDS011;15328;50.860;10.562;2023-08-21T10:02:23;11.05;;;8.07;;
27999;SDS011;15328;50.860;10.562;2023-08-21T10:07:24;10.02;;;8.43;;
27999;SDS011;15328;50.860;10.562;2023-08-21T10:12:27;8.68;;;7.82;;
27999;SDS011;15328;50.860;10.562;2023-08-21T10:17:27;9.00;;;7.90;;
27999;SDS011;15328;50.860;10.562;2023-08-21T10:22:47;8.32;;;7.45;;
27999;SDS011;15328;50.860;10.562;2023-08-21T10:27:49;8.07;;;7.28;;
27999;SDS011;15328;50.860;10.562;2023-08-21T10:32:51;9.55;;;7.70;;
27999;SDS011;15328;50.860;10.562;2023-08-21T10:48:37;9.48;;;7.30;;
27999;SDS011;15328;50.860;10.562;2023-08-21T10:53:39;7.93;;;7.07;;
27999;SDS011;15328;50.860;10.562;2023-08-21T10:58:41;8.00;;;7.20;;
27999;SDS011;15328;50.860;10.562;2023-08-21T11:03:46;7.82;;;6.65;;
27999;SDS011;15328;50.860;10.562;2023-08-21T11:08:49;9.38;;;7.55;;
27999;SDS011;15328;50.860;10.562;2023-08-21T11:13:53;6.53;;;5.93;;
27999;SDS011;15328;50.860;10.562;2023-08-21T11:18:54;6.18;;;5.57;;
27999;SDS011;15328;50.860;10.562;2023-08-21T11:23:54;5.47;;;5.03;;
27999;SDS011;15328;50.860;10.562;2023-08-21T11:28:54;7.73;;;6.33;;
27999;SDS011;15328;50.860;10.562;2023-08-21T11:33:56;6.57;;;5.88;;
27999;SDS011;15328;50.860;10.562;2023-08-21T11:38:59;7.20;;;6.50;;
27999;SDS011;15328;50.860;10.562;2023-08-21T11:44:01;6.70;;;6.10;;
27999;SDS011;15328;50.860;10.562;2023-08-21T11:49:04;6.20;;;5.60;;
27999;SDS011;15328;50.860;10.562;2023-08-21T11:54:04;6.95;;;5.00;;
27999;SDS011;15328;50.860;10.562;2023-08-21T11:59:05;5.60;;;4.95;;
27999;SDS011;15328;50.860;10.562;2023-08-21T12:04:15;6.13;;;4.10;;
27999;SDS011;15328;50.860;10.562;2023-08-21T12:09:16;6.97;;;4.45;;
27999;SDS011;15328;50.860;10.562;2023-08-21T12:14:19;5.93;;;4.35;;
27999;SDS011;15328;50.860;10.562;2023-08-21T12:19:19;4.47;;;4.00;;
27999;SDS011;15328;50.860;10.562;2023-08-21T12:24:21;5.22;;;4.45;;
27999;SDS011;15328;50.860;10.562;2023-08-21T12:29:21;4.20;;;3.53;;
27999;SDS011;15328;50.860;10.562;2023-08-21T12:34:22;4.83;;;3.67;;
27999;SDS011;15328;50.860;10.562;2023-08-21T12:39:22;4.80;;;4.00;;
27999;SDS011;15328;50.860;10.562;2023-08-21T12:44:23;5.60;;;3.50;;
27999;SDS011;15328;50.860;10.562;2023-08-21T12:49:23;3.63;;;3.33;;
27999;SDS011;15328;50.860;10.562;2023-08-21T12:54:23;3.60;;;3.00;;
27999;SDS011;15328;50.860;10.562;2023-08-21T12:59:24;3.50;;;2.67;;
27999;SDS011;15328;50.860;10.562;2023-08-21T13:04:24;2.83;;;2.57;;
27999;SDS011;15328;50.860;10.562;2023-08-21T13:09:24;3.00;;;2.70;;
27999;SDS011;15328;50.860;10.562;2023-08-21T13:14:25;3.42;;;2.70;;
27999;SDS011;15328;50.860;10.562;2023-08-21T13:19:25;3.70;;;3.10;;
27999;SDS011;15328;50.860;10.562;2023-08-21T13:24:26;4.13;;;3.03;;
27999;SDS011;15328;50.860;10.562;2023-08-21T13:29:28;2.63;;;2.42;;
27999;SDS011;15328;50.860;10.562;2023-08-21T13:34:28;3.63;;;2.30;;
27999;SDS011;15328;50.860;10.562;2023-08-21T13:39:28;4.57;;;2.60;;
27999;SDS011;15328;50.860;10.562;2023-08-21T13:44:29;3.35;;;2.50;;
27999;SDS011;15328;50.860;10.562;2023-08-21T13:49:29;3.00;;;2.60;;
27999;SDS011;15328;50.860;10.562;2023-08-21T13:54:29;2.97;;;2.67;;
27999;SDS011;15328;50.860;10.562;2023-08-21T13:59:30;3.40;;;3.10;;
27999;SDS011;15328;50.860;10.562;2023-08-21T14:04:32;2.70;;;2.50;;
27999;SDS011;15328;50.860;10.562;2023-08-21T14:09:32;3.38;;;3.00;;
27999;SDS011;15328;50.860;10.562;2023-08-21T14:14:33;3.30;;;2.70;;
27999;SDS011;15328;50.860;10.562;2023-08-21T14:19:34;4.28;;;3.35;;
27999;SDS011;15328;50.860;10.562;2023-08-21T14:24:34;4.63;;;3.67;;
27999;SDS011;15328;50.860;10.562;2023-08-21T14:29:35;3.40;;;3.10;;
27999;SDS011;15328;50.860;10.562;2023-08-21T14:34:35;4.27;;;3.10;;
27999;SDS011;15328;50.860;10.562;2023-08-21T14:39:36;3.67;;;3.10;;
27999;SDS011;15328;50.860;10.562;2023-08-21T14:44:36;2.75;;;2.50;;
27999;SDS011;15328;50.860;10.562;2023-08-21T14:49:37;4.57;;;3.05;;
27999;SDS011;15328;50.860;10.562;2023-08-21T14:54:37;3.20;;;2.90;;
27999;SDS011;15328;50.860;10.562;2023-08-21T14:59:38;2.83;;;2.40;;
27999;SDS011;15328;50.860;10.562;2023-08-21T15:04:38;2.30;;;2.03;;
27999;SDS011;15328;50.860;10.562;2023-08-21T15:09:38;2.73;;;2.50;;
27999;SDS011;15328;50.860;10.562;2023-08-21T15:14:39;2.40;;;2.13;;
27999;SDS011;15328;50.860;10.562;2023-08-21T15:19:39;3.33;;;2.30;;
27999;SDS011;15328;50.860;10.562;2023-08-21T15:24:39;2.60;;;2.28;;
27999;SDS011;15328;50.860;10.562;2023-08-21T15:29:40;2.40;;;2.20;;
27999;SDS011;15328;50.860;10.562;2023-08-21T15:34:40;2.80;;;2.50;;
27999;SDS011;15328;50.860;10.562;2023-08-21T15:39:42;2.92;;;2.58;;
27999;SDS011;15328;50.860;10.562;2023-08-21T15:44:42;2.57;;;2.37;;
27999;SDS011;15328;50.860;10.562;2023-08-21T15:49:43;2.53;;;2.22;;
27999;SDS011;15328;50.860;10.562;2023-08-21T15:54:43;2.60;;;2.20;;
27999;SDS011;15328;50.860;10.562;2023-08-21T15:59:43;2.50;;;2.30;;
27999;SDS011;15328;50.860;10.562;2023-08-21T16:04:44;3.53;;;2.47;;
27999;SDS011;15328;50.860;10.562;2023-08-21T16:09:44;3.30;;;2.50;;
27999;SDS011;15328;50.860;10.562;2023-08-21T16:14:45;2.60;;;2.38;;
27999;SDS011;15328;50.860;10.562;2023-08-21T16:19:45;2.90;;;2.50;;
27999;SDS011;15328;50.860;10.562;2023-08-21T16:24:46;4.07;;;2.70;;
27999;SDS011;15328;50.860;10.562;2023-08-21T16:29:46;2.72;;;2.38;;
27999;SDS011;15328;50.860;10.562;2023-08-21T16:34:47;2.87;;;2.40;;
27999;SDS011;15328;50.860;10.562;2023-08-21T16:39:49;2.50;;;2.13;;
27999;SDS011;15328;50.860;10.562;2023-08-21T16:44:49;2.97;;;2.10;;
27999;SDS011;15328;50.860;10.562;2023-08-21T16:49:49;3.10;;;2.10;;
27999;SDS011;15328;50.860;10.562;2023-08-21T16:54:50;2.10;;;1.90;;
27999;SDS011;15328;50.860;10.562;2023-08-21T16:59:50;2.50;;;1.90;;
27999;SDS011;15328;50.860;10.562;2023-08-21T17:04:50;2.00;;;1.80;;
27999;SDS011;15328;50.860;10.562;2023-08-21T17:09:51;2.55;;;2.30;;
27999;SDS011;15328;50.860;10.562;2023-08-21T17:14:51;2.20;;;2.00;;
27999;SDS011;15328;50.860;10.562;2023-08-21T17:19:54;2.33;;;2.10;;
27999;SDS011;15328;50.860;10.562;2023-08-21T17:24:54;2.33;;;2.00;;
27999;SDS011;15328;50.860;10.562;2023-08-21T17:29:54;2.30;;;2.10;;
27999;SDS011;15328;50.860;10.562;2023-08-21T17:34:55;2.67;;;2.33;;
27999;SDS011;15328;50.860;10.562;2023-08-21T17:39:55;2.35;;;2.15;;
27999;SDS011;15328;50.860;10.562;2023-08-21T17:44:57;2.60;;;2.22;;
27999;SDS011;15328;50.860;10.562;2023-08-21T17:49:57;2.30;;;2.10;;
27999;SDS011;15328;50.860;10.562;2023-08-21T17:54:57;2.20;;;1.90;;
27999;SDS011;15328;50.860;10.562;2023-08-21T17:59:58;2.38;;;1.90;;
27999;SDS011;15328;50.860;10.562;2023-08-21T18:04:58;2.80;;;2.30;;
27999;SDS011;15328;50.860;10.562;2023-08-21T18:09:59;2.53;;;2.13;;
27999;SDS011;15328;50.860;10.562;2023-08-21T18:15:01;3.47;;;2.50;;
27999;SDS011;15328;50.860;10.562;2023-08-21T18:20:03;3.08;;;2.75;;
27999;SDS011;15328;50.860;10.562;2023-08-21T18:25:05;4.40;;;2.70;;
27999;SDS011;15328;50.860;10.562;2023-08-21T18:30:09;4.25;;;2.72;;
27999;SDS011;15328;50.860;10.562;2023-08-21T18:35:17;2.80;;;2.50;;
27999;SDS011;15328;50.860;10.562;2023-08-21T18:40:17;3.10;;;2.80;;
27999;SDS011;15328;50.860;10.562;2023-08-21T18:45:18;3.50;;;3.17;;
27999;SDS011;15328;50.860;10.562;2023-08-21T18:50:18;3.53;;;3.20;;
27999;SDS011;15328;50.860;10.562;2023-08-21T18:55:22;3.67;;;3.25;;
27999;SDS011;15328;50.860;10.562;2023-08-21T19:00:23;5.10;;;4.13;;
27999;SDS011;15328;50.860;10.562;2023-08-21T19:05:23;5.53;;;3.88;;
27999;SDS011;15328;50.860;10.562;2023-08-21T19:10:24;4.83;;;4.10;;
27999;SDS011;15328;50.860;10.562;2023-08-21T19:15:25;4.30;;;3.90;;
27999;SDS011;15328;50.860;10.562;2023-08-21T19:20:28;5.55;;;3.70;;
27999;SDS011;15328;50.860;10.562;2023-08-21T19:25:29;5.07;;;4.03;;
27999;SDS011;15328;50.860;10.562;2023-08-21T19:30:30;4.85;;;3.85;;
27999;SDS011;15328;50.860;10.562;2023-08-21T19:35:33;7.10;;;4.30;;
27999;SDS011;15328;50.860;10.562;2023-08-21T19:40:37;9.23;;;4.75;;
27999;SDS011;15328;50.860;10.562;2023-08-21T19:45:38;5.47;;;4.50;;
27999;SDS011;15328;50.860;10.562;2023-08-21T19:50:39;5.03;;;4.18;;
27999;SDS011;15328;50.860;10.562;2023-08-21T19:55:40;4.72;;;3.90;;
27999;SDS011;15328;50.860;10.562;2023-08-21T20:00:41;4.40;;;4.00;;
27999;SDS011;15328;50.860;10.562;2023-08-21T20:05:41;6.07;;;4.10;;
27999;SDS011;15328;50.860;10.562;2023-08-21T20:10:42;4.40;;;4.00;;
27999;SDS011;15328;50.860;10.562;2023-08-21T20:15:44;5.60;;;4.40;;
27999;SDS011;15328;50.860;10.562;2023-08-21T20:20:48;8.15;;;4.07;;
27999;SDS011;15328;50.860;10.562;2023-08-21T20:25:49;5.65;;;3.95;;
27999;SDS011;15328;50.860;10.562;2023-08-21T20:30:50;5.03;;;4.15;;
27999;SDS011;15328;50.860;10.562;2023-08-21T20:35:51;5.28;;;3.95;;
27999;SDS011;15328;50.860;10.562;2023-08-21T20:40:52;4.10;;;3.70;;
27999;SDS011;15328;50.860;10.562;2023-08-21T20:46:00;4.32;;;3.92;;
27999;SDS011;15328;50.860;10.562;2023-08-21T20:51:02;4.93;;;3.53;;
27999;SDS011;15328;50.860;10.562;2023-08-21T20:56:02;7.43;;;3.80;;
27999;SDS011;15328;50.860;10.562;2023-08-21T21:01:03;4.45;;;3.90;;
27999;SDS011;15328;50.860;10.562;2023-08-21T21:06:04;5.20;;;3.70;;
27999;SDS011;15328;50.860;10.562;2023-08-21T21:11:05;4.20;;;3.70;;
27999;SDS011;15328;50.860;10.562;2023-08-21T21:16:06;4.50;;;4.00;;
27999;SDS011;15328;50.860;10.562;2023-08-21T21:21:06;6.53;;;4.30;;
27999;SDS011;15328;50.860;10.562;2023-08-21T21:26:06;6.77;;;4.30;;
27999;SDS011;15328;50.860;10.562;2023-08-21T21:31:07;5.53;;;4.50;;
27999;SDS011;15328;50.860;10.562;2023-08-21T21:36:07;5.03;;;4.07;;
27999;SDS011;15328;50.860;10.562;2023-08-21T21:41:07;4.67;;;4.27;;
27999;SDS011;15328;50.860;10.562;2023-08-21T21:46:08;5.50;;;4.70;;
27999;SDS011;15328;50.860;10.562;2023-08-21T21:51:09;6.03;;;4.38;;
27999;SDS011;15328;50.860;10.562;2023-08-21T21:56:10;5.13;;;4.60;;
27999;SDS011;15328;50.860;10.562;2023-08-21T22:01:10;4.45;;;4.00;;
27999;SDS011;15328;50.860;10.562;2023-08-21T22:06:11;6.37;;;4.60;;
27999;SDS011;15328;50.860;10.562;2023-08-21T22:11:12;6.07;;;4.30;;
27999;SDS011;15328;50.860;10.562;2023-08-21T22:16:13;5.20;;;4.70;;
27999;SDS011;15328;50.860;10.562;2023-08-21T22:21:15;8.68;;;4.95;;
27999;SDS011;15328;50.860;10.562;2023-08-21T22:26:15;6.20;;;4.30;;
27999;SDS011;15328;50.860;10.562;2023-08-21T22:31:15;4.90;;;4.10;;
27999;SDS011;15328;50.860;10.562;2023-08-21T22:36:16;5.83;;;4.80;;
27999;SDS011;15328;50.860;10.562;2023-08-21T22:41:16;5.35;;;4.35;;
27999;SDS011;15328;50.860;10.562;2023-08-21T22:46:16;5.33;;;4.53;;
27999;SDS011;15328;50.860;10.562;2023-08-21T22:51:18;5.47;;;4.18;;
27999;SDS011;15328;50.860;10.562;2023-08-21T22:56:18;5.00;;;3.93;;
27999;SDS011;15328;50.860;10.562;2023-08-21T23:01:18;4.70;;;4.20;;
27999;SDS011;15328;50.860;10.562;2023-08-21T23:06:19;7.00;;;4.70;;
27999;SDS011;15328;50.860;10.562;2023-08-21T23:11:19;5.17;;;4.57;;
27999;SDS011;15328;50.860;10.562;2023-08-21T23:16:21;6.63;;;4.13;;
27999;SDS011;15328;50.860;10.562;2023-08-21T23:21:23;6.47;;;4.77;;
27999;SDS011;15328;50.860;10.562;2023-08-21T23:26:24;5.15;;;4.00;;
27999;SDS011;15328;50.860;10.562;2023-08-21T23:31:24;5.17;;;4.33;;
27999;SDS011;15328;50.860;10.562;2023-08-21T23:36:25;5.23;;;4.40;;
27999;SDS011;15328;50.860;10.562;2023-08-21T23:41:25;4.53;;;4.10;;
27999;SDS011;15328;50.860;10.562;2023-08-21T23:46:25;5.30;;;4.20;;
27999;SDS011;15328;50.860;10.562;2023-08-21T23:51:26;5.40;;;3.83;;
27999;SDS011;15328;50.860;10.562;2023-08-21T23:56:26;4.35;;;3.72;;
